Time;durP1;ratioP1;P1;durP2;ratioP2;P2;SDS_P1;SDS_P2;PMS_P1;PMS_P2;Temp;Humidity;BMP_temperature;BMP_pressure;BME280_temperature;BME280_humidity;BME280_pressure;Samples;Min_cycle;Max_cycle;Signal;HPM_P1;HPM_P2
2020/12/21 00:01:11;;;;;;;12.90;4.13;;;5.20;99.90;;;;;;5012484;28;20291;-65
2020/12/21 00:03:36;;;;;;;8.43;3.97;;;5.20;99.90;;;;;;5011717;28;20168;-65
2020/12/21 00:06:02;;;;;;;7.73;3.97;;;5.20;99.90;;;;;;5023083;28;20203;-64
2020/12/21 00:08:27;;;;;;;12.27;4.53;;;5.10;99.90;;;;;;5031529;28;20250;-64
2020/12/21 00:10:53;;;;;;;11.90;4.20;;;5.10;99.90;;;;;;5020647;28;20262;-64
2020/12/21 00:13:19;;;;;;;12.80;4.60;;;5.10;99.90;;;;;;5011706;28;20588;-65
2020/12/21 00:15:45;;;;;;;9.67;4.03;;;5.10;99.90;;;;;;5024140;28;20194;-65
2020/12/21 00:18:10;;;;;;;11.30;3.80;;;5.00;99.90;;;;;;5031302;28;20246;-64
2020/12/21 00:20:36;;;;;;;14.60;4.20;;;5.00;99.90;;;;;;5019500;28;20208;-65
2020/12/21 00:23:02;;;;;;;10.00;3.73;;;4.90;99.90;;;;;;5011548;28;20168;-65
2020/12/21 00:25:27;;;;;;;7.03;3.80;;;4.80;99.90;;;;;;5024046;28;20217;-65
2020/12/21 00:27:53;;;;;;;6.83;3.53;;;4.70;99.90;;;;;;5035312;28;20182;-65
2020/12/21 00:30:18;;;;;;;8.70;4.00;;;4.70;99.90;;;;;;5026909;28;20192;-64
2020/12/21 00:32:44;;;;;;;10.83;4.00;;;4.70;99.90;;;;;;5034467;28;20176;-64
2020/12/21 00:35:10;;;;;;;10.43;4.47;;;4.70;99.90;;;;;;5031730;28;20711;-65
2020/12/21 00:37:35;;;;;;;11.63;3.40;;;4.60;99.90;;;;;;5024962;28;20176;-65
2020/12/21 00:40:01;;;;;;;7.70;3.20;;;4.60;99.90;;;;;;5018662;28;20183;-66
2020/12/21 00:42:26;;;;;;;13.47;4.30;;;4.70;99.90;;;;;;5035518;28;20260;-65
2020/12/21 00:44:52;;;;;;;13.33;4.17;;;4.60;99.90;;;;;;5025632;28;20188;-65
2020/12/21 00:47:17;;;;;;;13.03;3.53;;;4.70;99.90;;;;;;5015323;28;20204;-65
2020/12/21 00:49:43;;;;;;;11.87;3.60;;;4.70;99.90;;;;;;5022341;28;20233;-63
2020/12/21 00:52:09;;;;;;;10.80;4.83;;;4.70;99.90;;;;;;5034366;28;20687;-65
2020/12/21 00:54:34;;;;;;;9.70;4.27;;;4.60;99.90;;;;;;5029055;28;20176;-65
2020/12/21 00:57:00;;;;;;;9.07;4.60;;;4.60;99.90;;;;;;5014940;28;20184;-66
2020/12/21 00:59:26;;;;;;;15.90;4.30;;;4.70;99.90;;;;;;5018241;28;20186;-64
2020/12/21 01:01:51;;;;;;;10.80;3.63;;;4.70;99.90;;;;;;5034494;28;20219;-65
2020/12/21 01:04:17;;;;;;;11.13;3.93;;;4.70;99.90;;;;;;5032580;28;20523;-64
2020/12/21 01:06:42;;;;;;;16.20;4.20;;;4.60;99.90;;;;;;5014846;28;20211;-65
2020/12/21 01:09:11;;;;;;;11.27;4.23;;;4.60;99.90;;;;;;5014726;28;20208;-64
2020/12/21 01:11:37;;;;;;;13.23;4.13;;;4.60;99.90;;;;;;4994590;28;20220;-65
2020/12/21 01:14:03;;;;;;;10.30;3.80;;;4.60;99.90;;;;;;5008252;28;20702;-65
2020/12/21 01:16:29;;;;;;;7.83;3.80;;;4.60;99.90;;;;;;5034656;28;20211;-65
2020/12/21 01:18:55;;;;;;;11.40;3.70;;;4.60;99.90;;;;;;5029309;28;20548;-65
2020/12/21 01:21:25;;;;;;;10.83;3.60;;;4.60;99.90;;;;;;5014257;28;20202;-65
2020/12/21 01:23:52;;;;;;;12.17;3.03;;;4.60;99.90;;;;;;5017932;28;20202;-65
2020/12/21 01:26:18;;;;;;;16.40;4.30;;;4.60;99.90;;;;;;5034151;28;20707;-65
2020/12/21 01:28:43;;;;;;;11.87;3.37;;;4.70;99.90;;;;;;5032205;28;20172;-64
2020/12/21 01:31:09;;;;;;;9.87;4.00;;;4.60;99.90;;;;;;5013934;28;20278;-65
2020/12/21 01:33:34;;;;;;;13.33;4.30;;;4.70;99.90;;;;;;5014300;28;20168;-65
2020/12/21 01:36:00;;;;;;;13.00;3.70;;;4.70;99.90;;;;;;5030003;28;20624;-65
2020/12/21 01:38:26;;;;;;;9.20;3.73;;;4.70;99.90;;;;;;5016084;28;20215;-65
2020/12/21 01:40:51;;;;;;;11.33;4.47;;;4.70;99.90;;;;;;5013838;28;20290;-65
2020/12/21 01:43:17;;;;;;;10.20;3.70;;;4.70;99.90;;;;;;5025246;28;20176;-64
2020/12/21 01:45:43;;;;;;;10.20;3.50;;;4.70;99.90;;;;;;5014013;28;20323;-64
2020/12/21 01:48:09;;;;;;;10.27;4.03;;;4.70;99.90;;;;;;5027708;28;20292;-65
2020/12/21 01:50:35;;;;;;;13.70;3.57;;;4.70;99.90;;;;;;5033469;28;20196;-65
2020/12/21 01:53:01;;;;;;;12.57;5.43;;;4.60;99.90;;;;;;5021145;28;20184;-65
2020/12/21 01:55:29;;;;;;;13.53;4.20;;;4.70;99.90;;;;;;5023644;28;20183;-65
2020/12/21 01:57:55;;;;;;;14.43;4.43;;;4.70;99.90;;;;;;5033642;28;20271;-65
2020/12/21 02:00:21;;;;;;;9.57;4.83;;;4.70;99.90;;;;;;5024600;28;20208;-65
2020/12/21 02:02:47;;;;;;;8.87;3.67;;;4.70;99.90;;;;;;5014000;28;20588;-65
2020/12/21 02:05:12;;;;;;;14.77;4.27;;;4.60;99.90;;;;;;5022313;28;20294;-65
2020/12/21 02:07:38;;;;;;;9.07;3.70;;;4.70;99.90;;;;;;5031875;28;20179;-65
2020/12/21 02:10:04;;;;;;;13.33;3.40;;;4.60;99.90;;;;;;5013198;28;20176;-64
2020/12/21 02:12:29;;;;;;;12.20;4.00;;;4.60;99.90;;;;;;5019042;28;20452;-65
2020/12/21 02:14:55;;;;;;;14.70;4.00;;;4.70;99.90;;;;;;5033635;28;20254;-65
2020/12/21 02:17:20;;;;;;;9.37;3.97;;;4.70;99.90;;;;;;5031818;28;20543;-65
2020/12/21 02:19:46;;;;;;;11.40;3.70;;;4.70;99.90;;;;;;5033407;28;20183;-64
2020/12/21 02:22:12;;;;;;;9.87;4.27;;;4.70;99.90;;;;;;5021512;28;20211;-64
2020/12/21 02:24:39;;;;;;;11.70;3.73;;;4.70;99.90;;;;;;5013472;28;20600;-66
2020/12/21 02:27:05;;;;;;;12.30;4.17;;;4.70;99.90;;;;;;5022084;28;20211;-65
2020/12/21 02:29:30;;;;;;;12.70;4.17;;;4.60;99.90;;;;;;5032875;28;20282;-65
2020/12/21 02:31:56;;;;;;;11.30;3.97;;;4.60;99.90;;;;;;5030876;28;20657;-65
2020/12/21 02:34:24;;;;;;;10.00;4.03;;;4.60;99.90;;;;;;5033038;28;20206;-65
2020/12/21 02:36:50;;;;;;;8.53;3.53;;;4.60;99.90;;;;;;5026828;28;20192;-66
2020/12/21 02:39:15;;;;;;;11.20;4.27;;;4.60;99.90;;;;;;5013059;28;20587;-65
2020/12/21 02:41:41;;;;;;;12.60;3.57;;;4.60;99.90;;;;;;5016138;28;20208;-65
2020/12/21 02:44:07;;;;;;;11.57;3.43;;;4.60;99.90;;;;;;5032733;28;20743;-65
2020/12/21 02:46:32;;;;;;;13.70;4.80;;;4.60;99.90;;;;;;5021747;28;20212;-65
2020/12/21 02:48:58;;;;;;;15.07;4.40;;;4.60;99.90;;;;;;5012826;28;20225;-64
2020/12/21 02:51:23;;;;;;;13.03;3.70;;;4.60;99.90;;;;;;5020247;28;20705;-65
2020/12/21 02:53:49;;;;;;;10.23;3.17;;;4.60;99.90;;;;;;5032464;28;20172;-65
2020/12/21 02:56:16;;;;;;;12.03;3.30;;;4.50;99.90;;;;;;5025922;28;20254;-65
2020/12/21 02:58:41;;;;;;;7.77;3.47;;;4.50;99.90;;;;;;5012724;28;20187;-65
2020/12/21 03:01:07;;;;;;;9.67;3.43;;;4.50;99.90;;;;;;5016436;28;20219;-66
2020/12/21 03:03:33;;;;;;;7.23;3.40;;;4.40;99.90;;;;;;5032251;28;20171;-65
2020/12/21 03:05:58;;;;;;;8.20;3.77;;;4.40;99.90;;;;;;5029264;28;20207;-65
2020/12/21 03:08:24;;;;;;;6.77;3.30;;;4.40;99.90;;;;;;5012541;28;20263;-65
2020/12/21 03:10:49;;;;;;;15.97;3.50;;;4.30;99.90;;;;;;5012693;28;20743;-66
2020/12/21 03:13:15;;;;;;;6.30;3.00;;;4.30;99.90;;;;;;5032275;28;20269;-64
2020/12/21 03:15:41;;;;;;;11.97;4.13;;;4.30;99.90;;;;;;5024931;28;20234;-65
2020/12/21 03:18:06;;;;;;;9.47;3.40;;;4.30;99.90;;;;;;5012412;28;20188;-65
2020/12/21 03:20:32;;;;;;;6.53;3.80;;;4.30;99.90;;;;;;5016880;28;20206;-65
2020/12/21 03:22:57;;;;;;;10.10;4.20;;;4.30;99.90;;;;;;5032015;28;20270;-65
2020/12/21 03:25:23;;;;;;;9.93;4.23;;;4.30;99.90;;;;;;5030436;28;20851;-64
2020/12/21 03:27:49;;;;;;;9.70;4.10;;;4.30;99.90;;;;;;5025565;28;20187;-65
2020/12/21 03:30:15;;;;;;;10.47;4.23;;;4.30;99.90;;;;;;5012953;28;20564;-65
2020/12/21 03:32:40;;;;;;;7.37;4.27;;;4.30;99.90;;;;;;5032082;28;20186;-65
2020/12/21 03:35:06;;;;;;;14.53;4.60;;;4.40;99.90;;;;;;5027797;28;20211;-66
2020/12/21 03:37:33;;;;;;;12.77;4.40;;;4.40;99.90;;;;;;5031181;28;20183;-66
2020/12/21 03:40:07;;;;;;;11.80;4.53;;;4.30;99.90;;;;;;5029631;28;20168;-65
2020/12/21 03:42:34;;;;;;;8.00;4.63;;;4.40;99.90;;;;;;5012074;28;20187;-65
2020/12/21 03:44:59;;;;;;;10.37;4.70;;;4.40;99.90;;;;;;5016644;28;20262;-65
2020/12/21 03:47:25;;;;;;;13.27;4.80;;;4.40;99.90;;;;;;5031787;28;20258;-65
2020/12/21 03:49:51;;;;;;;14.53;5.40;;;4.40;99.90;;;;;;5027618;28;20184;-65
2020/12/21 03:52:17;;;;;;;12.23;4.40;;;4.40;99.90;;;;;;5011652;28;20208;-65
2020/12/21 03:54:42;;;;;;;11.27;4.90;;;4.40;99.90;;;;;;5013583;28;20195;-65
2020/12/21 03:57:08;;;;;;;15.67;4.90;;;4.40;99.90;;;;;;5031657;28;20360;-65
2020/12/21 03:59:34;;;;;;;7.47;5.10;;;4.40;99.90;;;;;;5031209;28;20185;-65
2020/12/21 04:01:59;;;;;;;8.27;4.63;;;4.30;99.90;;;;;;5011387;28;20200;-65
2020/12/21 04:04:25;;;;;;;14.30;4.90;;;4.30;99.90;;;;;;5011693;28;20176;-66
2020/12/21 04:06:51;;;;;;;10.87;4.57;;;4.30;99.90;;;;;;5029176;28;20234;-65
2020/12/21 04:09:17;;;;;;;8.83;4.83;;;4.30;99.90;;;;;;5031505;28;20456;-65
2020/12/21 04:11:43;;;;;;;11.00;4.63;;;4.20;99.90;;;;;;5014350;28;20223;-66
2020/12/21 04:14:09;;;;;;;8.07;4.47;;;4.20;99.90;;;;;;5012905;28;20227;-65
2020/12/21 04:16:35;;;;;;;14.17;4.93;;;4.20;99.90;;;;;;5031365;28;20179;-64
2020/12/21 04:19:02;;;;;;;8.50;5.17;;;4.20;99.90;;;;;;5030896;28;20186;-65
2020/12/21 04:21:28;;;;;;;14.47;5.50;;;4.20;99.90;;;;;;4991701;28;20201;-64
2020/12/21 04:23:54;;;;;;;6.80;5.07;;;4.20;99.90;;;;;;4991713;28;20231;-65
2020/12/21 04:26:20;;;;;;;6.67;4.33;;;4.20;99.90;;;;;;5028368;28;20264;-65
2020/12/21 04:28:45;;;;;;;9.33;5.00;;;4.20;99.90;;;;;;5031262;28;20179;-65
2020/12/21 04:31:11;;;;;;;8.47;4.63;;;4.10;99.90;;;;;;5013971;28;20200;-65
2020/12/21 04:33:36;;;;;;;11.03;4.83;;;4.10;99.90;;;;;;5011382;28;20180;-65
2020/12/21 04:36:02;;;;;;;9.10;4.97;;;4.20;99.90;;;;;;5025950;28;20187;-65
2020/12/21 04:38:28;;;;;;;16.33;5.40;;;4.10;99.90;;;;;;5031489;28;20271;-65
2020/12/21 04:40:56;;;;;;;7.33;3.93;;;4.10;99.90;;;;;;5017387;28;20755;-65
2020/12/21 04:43:22;;;;;;;9.90;4.80;;;4.10;99.90;;;;;;5011595;28;20187;-65
2020/12/21 04:45:53;;;;;;;7.07;3.97;;;4.10;99.90;;;;;;5011394;28;20750;-65
2020/12/21 04:48:23;;;;;;;6.93;4.53;;;4.20;99.90;;;;;;5011320;28;20262;-66
2020/12/21 04:50:53;;;;;;;15.50;5.27;;;4.20;99.90;;;;;;5029672;28;20192;-65
2020/12/21 04:53:20;;;;;;;10.23;4.93;;;4.20;99.90;;;;;;5030344;28;20179;-65
2020/12/21 04:55:46;;;;;;;11.37;4.43;;;4.20;99.90;;;;;;5012819;28;20210;-65
2020/12/21 04:58:12;;;;;;;7.73;3.87;;;4.30;99.90;;;;;;5011199;28;20176;-65
2020/12/21 05:00:37;;;;;;;8.87;4.03;;;4.30;99.90;;;;;;5026829;28;20211;-66
2020/12/21 05:03:04;;;;;;;9.80;4.57;;;4.40;99.90;;;;;;5030781;28;20197;-66
2020/12/21 05:05:41;;;;;;;9.37;4.07;;;4.40;99.90;;;;;;5016086;28;20230;-64
2020/12/21 05:08:21;;;;;;;8.93;4.40;;;4.40;99.90;;;;;;5011132;28;20617;-64
2020/12/21 05:10:58;;;;;;;16.70;4.27;;;4.40;99.90;;;;;;5055951;23;20219;-65
2020/12/21 05:13:24;;;;;;;6.83;4.07;;;4.50;99.90;;;;;;5058699;28;20545;-66
2020/12/21 05:15:51;;;;;;;12.83;4.83;;;4.50;99.90;;;;;;5061451;28;20193;-65
2020/12/21 05:18:16;;;;;;;8.83;4.07;;;4.40;99.90;;;;;;5057277;28;20183;-66
2020/12/21 05:20:42;;;;;;;15.70;4.13;;;4.50;99.90;;;;;;5074479;28;20240;-65
2020/12/21 05:23:17;;;;;;;12.20;4.50;;;4.50;99.90;;;;;;5073744;28;20225;-67
2020/12/21 05:25:43;;;;;;;17.37;4.63;;;4.50;99.90;;;;;;5054606;28;20206;-66
2020/12/21 05:28:14;;;;;;;7.80;4.00;;;4.50;99.90;;;;;;5054589;28;20171;-66
2020/12/21 05:30:56;;;;;;;10.17;5.70;;;4.50;99.90;;;;;;5054644;28;20735;-65
2020/12/21 05:33:22;;;;;;;12.43;4.57;;;4.50;99.90;;;;;;5059399;28;20523;-65
2020/12/21 05:35:49;;;;;;;8.73;4.60;;;4.60;99.90;;;;;;5074609;28;20174;-64
2020/12/21 05:38:25;;;;;;;11.80;4.90;;;4.60;99.90;;;;;;5070919;28;20175;-66
2020/12/21 05:40:52;;;;;;;10.07;6.10;;;4.70;99.90;;;;;;5054262;28;20189;-65
2020/12/21 05:43:29;;;;;;;8.23;4.60;;;4.70;99.90;;;;;;5056573;28;20257;-64
2020/12/21 05:46:09;;;;;;;8.87;4.70;;;4.70;99.90;;;;;;5075200;28;20202;-65
2020/12/21 05:48:55;;;;;;;12.63;5.17;;;4.70;99.90;;;;;;5065986;28;20511;-66
2020/12/21 05:51:25;;;;;;;10.63;5.27;;;4.70;99.90;;;;;;5053165;28;20187;-70
2020/12/21 05:53:58;;;;;;;13.03;5.13;;;4.70;99.90;;;;;;5063436;28;20181;-66
2020/12/21 05:56:25;;;;;;;12.37;5.07;;;4.80;99.90;;;;;;5056251;28;20226;-64
2020/12/21 05:58:53;;;;;;;13.07;5.23;;;4.80;99.90;;;;;;5064691;28;20621;-65
2020/12/21 06:01:19;;;;;;;12.50;5.50;;;4.80;99.90;;;;;;5054127;28;20183;-66
2020/12/21 06:03:49;;;;;;;15.43;5.40;;;4.80;99.90;;;;;;5061297;28;20254;-65
2020/12/21 06:06:22;;;;;;;15.67;5.23;;;4.70;99.90;;;;;;5061235;28;20202;-66
2020/12/21 06:08:50;;;;;;;9.30;4.33;;;4.80;99.90;;;;;;5061643;28;20495;-66
2020/12/21 06:11:20;;;;;;;13.20;5.47;;;4.80;99.90;;;;;;5041244;28;20585;-65
2020/12/21 06:13:57;;;;;;;16.13;6.37;;;4.80;99.90;;;;;;5068460;28;20659;-65
2020/12/21 06:16:24;;;;;;;18.33;5.80;;;4.80;99.90;;;;;;5073777;28;20169;-65
2020/12/21 06:18:57;;;;;;;9.07;4.67;;;4.90;99.90;;;;;;5072144;28;20174;-65
2020/12/21 06:21:25;;;;;;;8.93;5.23;;;4.90;99.90;;;;;;5072532;28;20213;-66
2020/12/21 06:23:50;;;;;;;12.33;5.47;;;5.00;99.90;;;;;;5041694;28;20190;-64
2020/12/21 06:26:16;;;;;;;8.63;4.13;;;5.00;99.90;;;;;;5053655;28;20202;-65
2020/12/21 06:28:44;;;;;;;10.80;4.40;;;5.10;99.90;;;;;;5065684;28;20186;-63
2020/12/21 06:31:18;;;;;;;13.90;5.23;;;5.10;99.90;;;;;;5073063;28;20247;-64
2020/12/21 06:33:45;;;;;;;14.43;5.60;;;5.20;99.90;;;;;;5061446;28;20682;-64
2020/12/21 06:36:11;;;;;;;11.23;4.93;;;5.20;99.90;;;;;;5053919;28;20174;-66
2020/12/21 06:38:43;;;;;;;14.87;5.30;;;5.20;99.90;;;;;;5064088;28;20525;-65
2020/12/21 06:41:25;;;;;;;11.30;5.23;;;5.30;99.90;;;;;;5073184;28;20189;-64
2020/12/21 06:43:55;;;;;;;18.63;5.20;;;5.30;99.90;;;;;;5053883;28;20178;-64
2020/12/21 06:46:21;;;;;;;12.03;4.37;;;5.30;99.90;;;;;;5053308;28;20684;-65
2020/12/21 06:49:19;;;;;;;10.73;4.20;;;5.40;99.90;;;;;;5054008;28;20182;-65
2020/12/21 06:51:46;;;;;;;12.93;4.93;;;5.40;99.90;;;;;;5027011;28;20294;-65
2020/12/21 06:54:13;;;;;;;13.83;5.37;;;5.40;99.90;;;;;;5035357;28;20171;-65
2020/12/21 06:56:44;;;;;;;10.73;4.90;;;5.40;99.90;;;;;;5053249;28;20209;-65
2020/12/21 06:59:20;;;;;;;18.17;5.23;;;5.40;99.90;;;;;;5068804;28;20711;-70
2020/12/21 07:01:47;;;;;;;12.80;5.63;;;5.50;99.90;;;;;;5072573;28;20219;-64
2020/12/21 07:04:17;;;;;;;9.53;5.73;;;5.50;99.90;;;;;;5032524;28;20644;-66
2020/12/21 07:06:44;;;;;;;10.77;6.07;;;5.50;99.90;;;;;;5066673;28;20562;-66
2020/12/21 07:09:12;;;;;;;13.07;6.50;;;5.50;99.90;;;;;;5074383;28;20634;-66
2020/12/21 07:11:42;;;;;;;8.93;6.47;;;5.50;99.90;;;;;;5073302;28;20300;-65
2020/12/21 07:14:12;;;;;;;14.77;7.23;;;5.60;99.90;;;;;;5075622;28;20784;-65
2020/12/21 07:16:38;;;;;;;13.27;6.87;;;5.60;99.90;;;;;;5059634;28;20183;-64
2020/12/21 07:19:04;;;;;;;14.60;7.70;;;5.60;99.90;;;;;;5055282;28;20232;-66
2020/12/21 07:21:33;;;;;;;11.73;7.07;;;5.60;99.90;;;;;;5067205;28;20251;-66
2020/12/21 07:23:59;;;;;;;15.90;6.93;;;5.60;99.90;;;;;;5055617;28;20177;-65
2020/12/21 07:26:26;;;;;;;15.10;6.70;;;5.60;99.90;;;;;;5056381;28;20206;-65
2020/12/21 07:28:52;;;;;;;14.33;7.13;;;5.60;99.90;;;;;;5053805;28;20163;-66
2020/12/21 07:31:19;;;;;;;10.93;6.83;;;5.70;99.90;;;;;;5069506;28;20478;-66
2020/12/21 07:33:59;;;;;;;9.83;6.20;;;5.70;99.90;;;;;;5062396;28;20171;-65
2020/12/21 07:36:37;;;;;;;11.77;6.60;;;5.70;99.90;;;;;;5052586;28;20535;-64
2020/12/21 07:39:14;;;;;;;14.57;6.10;;;5.70;99.90;;;;;;5064464;28;20182;-66
2020/12/21 07:41:45;;;;;;;8.53;5.60;;;5.80;99.90;;;;;;5063013;28;20225;-66
2020/12/21 07:44:12;;;;;;;13.10;6.07;;;5.80;99.90;;;;;;5053183;28;20182;-66
2020/12/21 07:46:45;;;;;;;12.93;5.90;;;5.80;99.90;;;;;;5061618;28;20205;-65
2020/12/21 07:49:11;;;;;;;12.97;5.67;;;5.80;99.90;;;;;;5073483;28;20205;-66
2020/12/21 07:51:41;;;;;;;12.83;5.83;;;5.80;99.90;;;;;;5064623;28;20201;-65
2020/12/21 07:54:07;;;;;;;12.10;5.70;;;5.80;99.90;;;;;;5051945;28;20167;-66
2020/12/21 07:56:33;;;;;;;13.90;7.17;;;5.80;99.90;;;;;;5052485;28;20201;-65
2020/12/21 07:58:58;;;;;;;9.30;5.70;;;5.90;99.90;;;;;;5052472;28;20649;-66
2020/12/21 08:01:24;;;;;;;10.57;5.23;;;5.90;99.90;;;;;;5057323;28;20196;-66
2020/12/21 08:03:53;;;;;;;13.73;5.63;;;5.90;99.90;;;;;;5072519;28;20170;-65
2020/12/21 08:06:24;;;;;;;12.73;5.50;;;5.90;99.90;;;;;;5056340;28;20211;-66
2020/12/21 08:08:50;;;;;;;11.77;5.50;;;5.90;99.90;;;;;;5053540;28;20221;-66
2020/12/21 08:11:18;;;;;;;15.00;5.83;;;6.00;99.90;;;;;;5066896;28;20666;-66
2020/12/21 08:13:49;;;;;;;16.37;5.83;;;6.00;99.90;;;;;;5073403;28;20166;-66
2020/12/21 08:16:15;;;;;;;9.50;5.27;;;6.00;99.90;;;;;;5058697;28;20270;-67
2020/12/21 08:18:45;;;;;;;7.60;4.23;;;6.10;99.90;;;;;;5052824;28;20174;-66
2020/12/21 08:21:14;;;;;;;7.90;4.47;;;6.20;99.90;;;;;;5063941;28;20233;-66
2020/12/21 08:23:40;;;;;;;11.60;5.27;;;6.20;99.90;;;;;;5073145;28;20166;-65
2020/12/21 08:26:16;;;;;;;13.40;5.80;;;6.20;99.90;;;;;;5069792;28;20289;-64
2020/12/21 08:28:42;;;;;;;11.20;5.87;;;6.30;99.90;;;;;;5054269;28;20276;-65
2020/12/21 08:31:13;;;;;;;18.60;6.70;;;6.30;99.90;;;;;;5052742;28;20293;-66
2020/12/21 08:33:42;;;;;;;11.77;5.97;;;6.40;99.90;;;;;;5071762;28;20170;-65
2020/12/21 08:36:16;;;;;;;10.37;6.40;;;6.50;99.90;;;;;;5042392;28;20187;-65
2020/12/21 08:38:42;;;;;;;13.13;6.90;;;6.50;99.90;;;;;;5051584;28;20201;-66
2020/12/21 08:41:07;;;;;;;16.53;6.80;;;6.60;99.90;;;;;;5060888;28;20242;-66
2020/12/21 08:43:33;;;;;;;13.33;6.80;;;6.70;99.90;;;;;;5072547;28;20186;-65
2020/12/21 08:45:59;;;;;;;15.43;7.47;;;6.70;99.90;;;;;;5065756;28;20203;-66
2020/12/21 08:48:25;;;;;;;14.60;7.00;;;6.70;99.90;;;;;;5056089;28;20189;-65
2020/12/21 08:50:51;;;;;;;16.00;7.93;;;6.80;99.90;;;;;;5072514;28;20197;-65
2020/12/21 08:53:17;;;;;;;11.90;7.63;;;6.80;99.90;;;;;;5076185;28;20166;-65
2020/12/21 08:55:42;;;;;;;10.23;6.13;;;6.90;99.90;;;;;;5058608;28;20182;-66
2020/12/21 08:58:08;;;;;;;10.33;5.67;;;6.90;99.90;;;;;;5055324;28;20179;-66
2020/12/21 09:00:33;;;;;;;10.97;5.70;;;6.90;99.90;;;;;;5070520;28;20588;-65
2020/12/21 09:02:59;;;;;;;14.63;6.07;;;7.00;99.90;;;;;;5075446;28;20724;-65
2020/12/21 09:05:25;;;;;;;11.60;4.80;;;7.00;99.90;;;;;;5043741;28;20205;-65
2020/12/21 09:07:50;;;;;;;6.37;4.17;;;7.00;99.90;;;;;;5055143;28;20335;-65
2020/12/21 09:10:16;;;;;;;14.43;6.50;;;7.00;99.90;;;;;;5055626;28;20187;-66
2020/12/21 09:12:41;;;;;;;10.20;3.77;;;7.10;99.90;;;;;;5054754;28;20182;-66
2020/12/21 09:15:07;;;;;;;11.50;4.83;;;7.10;99.90;;;;;;5064281;28;20265;-66
2020/12/21 09:17:32;;;;;;;7.03;3.90;;;7.10;99.90;;;;;;5050177;28;20536;-66
2020/12/21 09:19:58;;;;;;;9.97;5.60;;;7.10;99.90;;;;;;5054249;28;20213;-66
2020/12/21 09:22:23;;;;;;;7.93;4.20;;;7.20;99.90;;;;;;5059391;28;20590;-65
2020/12/21 09:24:49;;;;;;;8.97;4.60;;;7.20;99.90;;;;;;5040596;28;20174;-65
2020/12/21 09:27:15;;;;;;;10.83;4.97;;;7.20;99.90;;;;;;5054670;28;20721;-65
2020/12/21 09:29:41;;;;;;;7.70;5.03;;;7.30;99.90;;;;;;5054929;28;20263;-66
2020/12/21 09:32:06;;;;;;;8.70;5.10;;;7.20;99.90;;;;;;5053792;28;20629;-66
2020/12/21 09:34:32;;;;;;;12.37;4.60;;;7.30;99.90;;;;;;5054287;28;20171;-65
2020/12/21 09:36:58;;;;;;;18.73;5.13;;;7.40;99.90;;;;;;5054991;28;20640;-65
2020/12/21 09:39:24;;;;;;;8.00;4.23;;;7.40;99.90;;;;;;5054755;28;20167;-64
2020/12/21 09:41:52;;;;;;;9.00;5.13;;;7.50;99.90;;;;;;5053825;28;20190;-64
2020/12/21 09:44:18;;;;;;;10.63;4.43;;;7.50;99.90;;;;;;5054446;28;20167;-66
2020/12/21 09:46:43;;;;;;;8.23;4.63;;;7.50;99.90;;;;;;5054700;28;20229;-66
2020/12/21 09:49:09;;;;;;;11.13;4.10;;;7.60;99.90;;;;;;5054380;28;20206;-66
2020/12/21 09:51:34;;;;;;;13.73;5.70;;;7.70;99.90;;;;;;5054384;28;20190;-66
2020/12/21 09:54:00;;;;;;;10.43;6.17;;;7.70;99.90;;;;;;5053995;28;20167;-64
2020/12/21 09:56:25;;;;;;;5.83;4.40;;;7.80;99.90;;;;;;5054404;28;20170;-65
2020/12/21 09:58:51;;;;;;;11.57;4.83;;;7.80;99.90;;;;;;5054074;28;20272;-66
2020/12/21 10:01:17;;;;;;;8.03;3.60;;;7.80;99.90;;;;;;5053765;28;20785;-66
2020/12/21 10:03:42;;;;;;;7.43;3.87;;;7.80;99.90;;;;;;5054761;28;20175;-66
2020/12/21 10:06:10;;;;;;;9.47;4.10;;;7.80;99.90;;;;;;5054625;28;20696;-66
2020/12/21 10:08:37;;;;;;;8.93;4.57;;;7.80;99.90;;;;;;5054227;28;20595;-66
2020/12/21 10:11:03;;;;;;;7.80;4.13;;;7.90;99.90;;;;;;5053170;28;20630;-66
2020/12/21 10:13:30;;;;;;;9.83;4.37;;;7.80;99.90;;;;;;5053851;28;20267;-65
2020/12/21 10:15:56;;;;;;;10.33;3.97;;;7.80;99.90;;;;;;5053847;28;20241;-65
2020/12/21 10:18:21;;;;;;;7.90;3.90;;;7.90;99.90;;;;;;5053511;28;20170;-65
2020/12/21 10:20:47;;;;;;;10.77;4.57;;;7.90;99.90;;;;;;5053544;28;20199;-64
2020/12/21 10:23:14;;;;;;;17.07;4.60;;;7.90;99.90;;;;;;5053691;28;20183;-66
2020/12/21 10:25:40;;;;;;;9.00;4.30;;;8.00;99.90;;;;;;5053550;28;20195;-66
2020/12/21 10:28:06;;;;;;;11.03;4.67;;;8.00;99.90;;;;;;5053468;28;20167;-66
2020/12/21 10:30:32;;;;;;;11.17;4.07;;;8.10;99.90;;;;;;5062996;28;20228;-64
2020/12/21 10:32:57;;;;;;;11.90;4.07;;;8.20;99.90;;;;;;5063901;28;20315;-64
2020/12/21 10:35:23;;;;;;;14.97;4.37;;;8.30;99.90;;;;;;5072615;28;20174;-65
2020/12/21 10:37:48;;;;;;;10.33;3.63;;;8.30;99.90;;;;;;5055859;28;20308;-66
2020/12/21 10:40:14;;;;;;;6.67;4.17;;;8.40;99.90;;;;;;5052769;28;20205;-65
2020/12/21 10:42:39;;;;;;;5.43;3.70;;;8.50;99.90;;;;;;5052814;28;20272;-66
2020/12/21 10:45:05;;;;;;;14.47;3.60;;;8.60;99.90;;;;;;5053144;28;20175;-66
2020/12/21 10:47:31;;;;;;;8.93;4.00;;;8.70;99.90;;;;;;5053234;28;20163;-65
2020/12/21 10:49:56;;;;;;;13.10;4.43;;;8.70;99.90;;;;;;5053230;28;20183;-65
2020/12/21 10:52:22;;;;;;;6.40;3.50;;;8.70;99.90;;;;;;5053579;28;20224;-66
2020/12/21 10:54:48;;;;;;;6.27;3.40;;;8.70;99.90;;;;;;5054257;28;20544;-65
2020/12/21 10:57:13;;;;;;;9.73;3.77;;;8.70;99.90;;;;;;5053644;28;20185;-66
2020/12/21 10:59:39;;;;;;;6.73;3.13;;;8.70;99.90;;;;;;5063683;28;20182;-65
2020/12/21 11:02:04;;;;;;;8.93;3.13;;;8.70;99.90;;;;;;5072036;28;20190;-66
2020/12/21 11:04:30;;;;;;;8.13;3.43;;;8.70;99.90;;;;;;5070784;28;20546;-65
2020/12/21 11:06:56;;;;;;;9.77;3.23;;;8.60;99.90;;;;;;5072304;28;20221;-65
2020/12/21 11:09:22;;;;;;;8.87;3.93;;;8.60;99.90;;;;;;5064286;28;20175;-63
2020/12/21 11:11:47;;;;;;;6.23;2.90;;;8.60;99.90;;;;;;5052380;28;20203;-63
2020/12/21 11:14:13;;;;;;;9.87;3.83;;;8.60;99.90;;;;;;5056476;28;20261;-65
2020/12/21 11:16:39;;;;;;;5.33;2.93;;;8.60;99.90;;;;;;5072187;28;20647;-63
2020/12/21 11:19:04;;;;;;;7.43;3.03;;;8.60;99.90;;;;;;5068682;28;20178;-62
2020/12/21 11:21:39;;;;;;;9.07;3.77;;;8.60;99.90;;;;;;5033906;28;20221;-63
2020/12/21 11:24:05;;;;;;;11.97;3.57;;;8.60;99.90;;;;;;5053933;28;20840;-64
2020/12/21 11:26:30;;;;;;;11.83;3.97;;;8.60;99.90;;;;;;5053987;28;20201;-65
2020/12/21 11:28:56;;;;;;;9.43;4.00;;;8.70;99.90;;;;;;5070947;28;20601;-62
2020/12/21 11:31:22;;;;;;;4.67;3.20;;;8.70;99.90;;;;;;5051508;28;20648;-61
2020/12/21 11:33:47;;;;;;;10.07;3.70;;;8.70;99.90;;;;;;5051921;28;20213;-64
2020/12/21 11:36:13;;;;;;;9.40;3.63;;;8.60;99.90;;;;;;5070540;28;20307;-65
2020/12/21 11:38:39;;;;;;;8.17;3.57;;;8.70;99.90;;;;;;5055200;28;20235;-62
2020/12/21 11:41:05;;;;;;;8.30;3.80;;;8.70;99.90;;;;;;5033371;28;20277;-62
2020/12/21 11:43:31;;;;;;;7.20;3.67;;;8.70;99.90;;;;;;5066272;28;20701;-63
2020/12/21 11:45:56;;;;;;;14.90;3.87;;;8.70;99.90;;;;;;5071825;28;20197;-64
2020/12/21 11:48:22;;;;;;;8.33;3.20;;;8.80;99.90;;;;;;5058505;28;20655;-62
2020/12/21 11:50:48;;;;;;;9.47;3.93;;;8.80;99.90;;;;;;5051463;28;20691;-64
2020/12/21 11:53:14;;;;;;;9.40;3.80;;;8.80;99.90;;;;;;5062706;28;20565;-64
2020/12/21 11:55:39;;;;;;;10.53;3.70;;;8.90;99.90;;;;;;5071824;28;20209;-64
2020/12/21 11:58:05;;;;;;;9.00;4.70;;;8.90;99.90;;;;;;5061367;28;20223;-62
2020/12/21 12:00:31;;;;;;;6.80;3.43;;;9.00;99.90;;;;;;5051447;28;20518;-65
2020/12/21 12:02:56;;;;;;;5.83;3.80;;;9.00;99.90;;;;;;5059003;28;20185;-66
2020/12/21 12:05:22;;;;;;;5.87;3.87;;;9.00;99.90;;;;;;5066097;28;20211;-65
2020/12/21 12:07:47;;;;;;;7.10;3.47;;;9.00;99.90;;;;;;5057757;28;20170;-67
2020/12/21 12:10:13;;;;;;;7.17;4.53;;;9.00;99.90;;;;;;5067303;28;20262;-66
2020/12/21 12:12:39;;;;;;;8.57;4.40;;;8.90;99.90;;;;;;5051804;28;20631;-66
2020/12/21 12:15:04;;;;;;;9.27;3.90;;;8.90;99.90;;;;;;5035170;28;20530;-65
2020/12/21 12:17:30;;;;;;;8.10;4.80;;;8.90;99.90;;;;;;5071340;28;20170;-65
2020/12/21 12:19:56;;;;;;;7.67;4.27;;;8.70;99.90;;;;;;5071370;28;20166;-64
2020/12/21 12:22:21;;;;;;;11.90;4.50;;;8.70;99.90;;;;;;5058687;28;20194;-66
2020/12/21 12:24:47;;;;;;;11.63;4.97;;;8.60;99.90;;;;;;5075555;28;20180;-66
2020/12/21 12:27:13;;;;;;;10.23;4.70;;;8.60;99.90;;;;;;5056842;28;20214;-65
2020/12/21 12:29:38;;;;;;;15.07;6.07;;;8.60;99.90;;;;;;5055654;28;20611;-65
2020/12/21 12:32:04;;;;;;;9.43;4.67;;;8.50;99.90;;;;;;5071025;28;20204;-67
2020/12/21 12:34:30;;;;;;;8.27;4.83;;;8.50;99.90;;;;;;5061440;28;20182;-66
2020/12/21 12:36:55;;;;;;;9.17;5.10;;;8.40;99.90;;;;;;5055293;28;20244;-65
2020/12/21 12:39:21;;;;;;;10.50;5.27;;;8.40;99.90;;;;;;5066984;28;20250;-66
2020/12/21 12:41:46;;;;;;;11.17;5.77;;;8.40;99.90;;;;;;5075043;28;20204;-64
2020/12/21 12:44:12;;;;;;;13.17;5.80;;;8.30;99.90;;;;;;5073246;28;20669;-66
2020/12/21 12:46:38;;;;;;;15.77;5.43;;;8.30;99.90;;;;;;5075281;28;20596;-66
2020/12/21 12:49:06;;;;;;;8.33;5.10;;;8.30;99.90;;;;;;5066364;28;20179;-66